nws-alerts: Checking more than four warning/county codes can delay the loading of your pages. You should use a cron job to get the data.

Nearby METAR Weather Reports

 

KETB - West Bend, WI
Distance from station: E 4mi, 6km
Updated: 07/06/2020 3:15am
Clear
Clear
 Wind from calm
Wind: Calm
Temperature: 70°F , 21°C
Dew Point: 68°F , 20°C
Humidity: 94%
Barometer: 29.98 inHg , 1015.2 hPa
Clouds: Clear
Visibility: 10 miles , 16 km
2020/07/06 08:15 KETB 060815Z AUTO 00000KT 10SM CLR 21/20 A2998 RMK AO2
KFLD - Fond Du Lac, WI
Distance from station: W 34mi, 54km
Updated: 07/06/2020 2:53am
Clear
Clear
 Wind from SSW
Wind: SSW 3 mph , 6 km/h
Temperature: 75°F , 24°C
Dew Point: 70°F , 21°C
Humidity: 83%
Barometer: 29.97 inHg , 1014.9 hPa
Clouds: Clear
Visibility: 10 miles , 16 km
2020/07/06 07:53 KFLD 060753Z AUTO 20003KT 10SM CLR 24/21 A2997 RMK AO2 SLP142 T02390206 TSNO
 
KSBM - Sheboygan, WI
Distance from station: NE 36mi, 57km
Updated: 07/06/2020 2:53am
Clear
Clear
 Wind from S
Wind: S 3 mph , 6 km/h
Temperature: 72°F , 22°C
Dew Point: 66°F , 19°C
Humidity: 83%
Barometer: 29.97 inHg , 1014.9 hPa
Clouds: Clear
Visibility: 9 miles , 14 km
2020/07/06 07:53 KSBM 060753Z AUTO 17003KT 9SM CLR 22/19 A2997 RMK AO2 RAB0655E05 SLP143 P0000 T02170194
KMKE - Milwaukee, WI
Distance from station: S 44mi, 70km
Updated: 07/06/2020 2:52am
Few Clouds
Few Clouds
 Wind from SSW
Wind: SSW 6 mph , 9 km/h
Temperature: 77°F , 25°C
Dew Point: 63°F , 17°C
Humidity: 61%
Barometer: 29.97 inHg , 1014.9 hPa
Clouds: Few Clouds
Visibility: 10 miles , 16 km
Cloud details: Few Clouds 8000 ft
2020/07/06 07:52 KMKE 060752Z 21005KT 10SM FEW080 25/17 A2997 RMK AO2 SLP144 T02500172
 
KOSH - Oshkosh, WI
Distance from station: WNW 52mi, 83km
Updated: 07/06/2020 2:53am
Clear
Clear
 Wind from calm
Wind: Calm
Temperature: 75°F , 24°C
Dew Point: 70°F , 21°C
Humidity: 83%
Barometer: 29.96 inHg , 1014.6 hPa
Clouds: Clear
Visibility: 10 miles , 16 km
2020/07/06 07:53 KOSH 060753Z AUTO 00000KT 10SM CLR 24/21 A2996 RMK AO2 SLP128 T02390206 TSNO
KENW - Kenosha, WI
Distance from station: SSE 69mi, 111km
Updated: 07/06/2020 2:53am
Clear
Clear
 Wind from calm
Wind: Calm
Temperature: 70°F , 21°C
Dew Point: 64°F , 18°C
Humidity: 83%
Barometer: 29.99 inHg , 1015.6 hPa
Clouds: Clear
Visibility: 10 miles , 16 km
2020/07/06 07:53 KENW 060753Z AUTO 00000KT 10SM CLR 21/18 A2999 RMK AO2 SLP149 T02060178 $
 
KMSN - Madison, WI
Distance from station: SW 69mi, 111km
Updated: 07/06/2020 2:53am
Clear
Clear
 Wind from calm
Wind: Calm
Temperature: 72°F , 22°C
Dew Point: 70°F , 21°C
Humidity: 94%
Barometer: 29.97 inHg , 1014.9 hPa
Clouds: Clear
Visibility: 10 miles , 16 km
2020/07/06 07:53 KMSN 060753Z AUTO 00000KT 10SM CLR 22/21 A2997 RMK AO2 SLP143 T02170211
KSAW - Marquette, MI
Distance from station: N 262mi, 421km
Updated: 07/06/2020 3:19am
Clear
Clear
 Wind from calm
Wind: Calm
Temperature: 70°F , 21°C
Dew Point: 66°F , 19°C
Humidity: 88%
Barometer: 29.96 inHg , 1014.6 hPa
Clouds: Clear
Visibility: 10 miles , 16 km
2020/07/06 08:19 KSAW 060819Z AUTO 00000KT 10SM CLR 21/19 A2996 RMK AO2 T02070186
 
KIMT - Iron Mountain, MI
Distance from station: NNW 201mi, 323km
Updated: 07/06/2020 2:54am
Clear
Clear
 Wind from calm
Wind: Calm
Temperature: 68°F , 20°C
Dew Point: 66°F , 19°C
Humidity: 94%
Barometer: 29.96 inHg , 1014.6 hPa
Clouds: Clear
Visibility: 9 miles , 14 km
2020/07/06 07:54 KIMT 060754Z AUTO 00000KT 9SM CLR 20/19 A2996 RMK AO2 SLP138 T02000189 $
KGRB - Green Bay, WI
Distance from station: NNW 87mi, 140km
Updated: 07/06/2020 2:53am
Mist, Clear
Mist, Clear
 Wind from W
Wind: W 3 mph , 6 km/h
Temperature: 72°F , 22°C
Dew Point: 70°F , 21°C
Humidity: 94%
Barometer: 29.96 inHg , 1014.6 hPa
Summary: Mist
Clouds: Clear
Visibility: 5 miles , 8 km
2020/07/06 07:53 KGRB 060753Z AUTO 27003KT 5SM BR CLR 22/21 A2996 RMK AO2 SLP142 T02170206
 
KAUW - Wausau, WI
Distance from station: NW 155mi, 249km
Updated: 07/06/2020 2:54am
Clear
Clear
 Wind from ESE
Wind: ESE 3 mph , 6 km/h
Temperature: 70°F , 21°C
Dew Point: 70°F , 21°C
Humidity: 100%
Barometer: 29.97 inHg , 1014.9 hPa
Clouds: Clear
Visibility: 8 miles , 13 km
2020/07/06 07:54 KAUW 060754Z AUTO 11003KT 8SM CLR 21/21 A2997 RMK AO2 SLP144 T02110206
KORD - Chicago O'Hare, IL
Distance from station: S 113mi, 181km
Updated: 07/06/2020 2:51am
Few Clouds
Few Clouds
 Wind from calm
Wind: Calm
Temperature: 79°F , 26°C
Dew Point: 64°F , 18°C
Humidity: 61%
Barometer: 29.98 inHg , 1015.2 hPa
Clouds: Few Clouds
Visibility: 10 miles , 16 km
Cloud details: Few Clouds 25000 ft
2020/07/06 07:51 KORD 060751Z 00000KT 10SM FEW250 26/18 A2998 RMK AO2 SLP144 T02560178 $
 
KVOK - WIANG Volk Field, Camp Douglas, WI
Distance from station: WNW 120mi, 193km
Updated: 07/06/2020 2:56am
Partly cloudy
Partly cloudy
 Wind from calm
Wind: Calm
Temperature: 66°F , 19°C
Barometer: 29.97 inHg , 1014.9 hPa
Clouds: Partly cloudy
Visibility: 10 miles , 16 km
Cloud details: Partly cloudy 5000 ft
2020/07/06 07:56 KVOK 060756Z AUTO 00000KT 10SM SCT050 19/ A2997 RMK AO2 RAB13E14RAB29E39 SLP146 P0000 $
KLNR - Lone Rock, WI
Distance from station: W 114mi, 183km
Updated: 07/06/2020 2:56am
Few Clouds
Few Clouds
 Wind from calm
Wind: Calm
Temperature: 72°F , 22°C
Dew Point: 70°F , 21°C
Humidity: 94%
Barometer: 29.97 inHg , 1014.9 hPa
Clouds: Few Clouds
Visibility: 10 miles , 16 km
Cloud details: Few Clouds 9000 ft
2020/07/06 07:56 KLNR 060756Z AUTO 00000KT 10SM FEW090 22/21 A2997 RMK AO2 RAE11 SLP139 P0000 T02220211